Time;durP1;ratioP1;P1;durP2;ratioP2;P2;SDS_P1;SDS_P2;PMS_P1;PMS_P2;Temp;Humidity;BMP_temperature;BMP_pressure;BME280_temperature;BME280_humidity;BME280_pressure;Samples;Min_cycle;Max_cycle;Signal;HPM_P1;HPM_P2
2022/01/21 00:00:51;;;;;;;3.80;0.77;;;3.00;79.40;;;;;;6046635;23;20098;-70
2022/01/21 00:03:18;;;;;;;1.50;0.70;;;3.00;79.30;;;;;;6049340;23;20033;-72
2022/01/21 00:05:46;;;;;;;2.50;0.70;;;3.00;79.20;;;;;;6049773;23;20073;-72
2022/01/21 00:08:13;;;;;;;3.85;1.27;;;3.00;79.20;;;;;;6048168;23;20362;-70
2022/01/21 00:10:47;;;;;;;2.53;0.73;;;3.00;79.30;;;;;;6050269;23;20025;-72
2022/01/21 00:13:21;;;;;;;5.18;1.75;;;3.00;79.40;;;;;;6000158;23;20713;-71
2022/01/21 00:16:01;;;;;;;3.50;0.70;;;2.90;79.40;;;;;;837412;23;10002488;-72
2022/01/21 00:18:29;;;;;;;2.92;0.88;;;3.00;79.50;;;;;;6050824;23;20080;-70
2022/01/21 00:31:56;;;;;;;1.60;0.68;;;2.90;79.60;;;;;;6052203;23;20023;-71
2022/01/21 00:34:23;;;;;;;4.10;0.90;;;3.00;79.40;;;;;;6048482;23;20023;-71
2022/01/21 00:36:51;;;;;;;4.65;1.05;;;3.00;79.40;;;;;;6048759;23;20256;-71
2022/01/21 00:39:23;;;;;;;5.78;1.17;;;3.00;79.40;;;;;;6048175;23;20118;-71
2022/01/21 00:41:58;;;;;;;4.15;0.80;;;3.00;79.30;;;;;;6048819;23;20030;-71
2022/01/21 00:44:26;;;;;;;1.50;0.55;;;3.00;79.30;;;;;;6051075;23;20347;-71
2022/01/21 00:46:53;;;;;;;1.70;0.60;;;3.00;79.30;;;;;;6045485;23;20047;-71
2022/01/21 00:49:20;;;;;;;1.88;0.57;;;3.00;79.20;;;;;;6048179;23;20027;-71
2022/01/21 00:51:47;;;;;;;3.30;0.90;;;3.00;79.10;;;;;;6048642;23;20134;-71
2022/01/21 00:54:16;;;;;;;4.82;0.45;;;3.00;79.10;;;;;;6047232;23;20027;-70
2022/01/21 00:56:43;;;;;;;2.85;0.52;;;3.10;79.10;;;;;;6046780;23;20117;-72
2022/01/21 00:59:10;;;;;;;3.53;0.70;;;3.00;79.10;;;;;;6048580;23;20023;-72
2022/01/21 01:01:37;;;;;;;1.13;0.30;;;3.00;79.00;;;;;;6045422;23;20023;-71
2022/01/21 01:04:05;;;;;;;1.83;0.40;;;3.00;79.10;;;;;;6048719;23;20023;-69
2022/01/21 01:06:33;;;;;;;1.70;0.43;;;3.00;79.00;;;;;;6047615;23;20094;-72
2022/01/21 01:09:00;;;;;;;2.10;0.73;;;3.00;78.90;;;;;;6048851;23;20031;-72
2022/01/21 01:11:43;;;;;;;2.92;0.70;;;3.00;78.90;;;;;;6043722;23;20046;-71
2022/01/21 01:19:58;;;;;;;3.42;0.57;;;3.00;79.00;;;;;;6050377;23;20027;-70
2022/01/21 01:22:33;;;;;;;2.13;0.63;;;3.00;79.00;;;;;;6050756;23;20472;-72
2022/01/21 01:27:45;;;;;;;4.85;0.77;;;3.00;78.80;;;;;;6048278;23;20023;-70
2022/01/21 01:30:15;;;;;;;2.90;0.63;;;3.00;78.80;;;;;;6049327;23;20183;-72
2022/01/21 01:32:44;;;;;;;1.88;0.45;;;3.00;78.80;;;;;;6051347;23;20106;-71
2022/01/21 01:35:13;;;;;;;4.57;0.50;;;3.10;78.90;;;;;;6049422;23;20269;-71
2022/01/21 01:37:59;;;;;;;3.85;0.55;;;3.00;78.90;;;;;;6050213;23;20057;-72
2022/01/21 01:40:30;;;;;;;0.43;0.30;;;3.00;78.90;;;;;;6071231;23;20022;-70
2022/01/21 01:49:24;;;;;;;1.80;0.60;;;3.00;78.90;;;;;;6050676;23;20461;-72
2022/01/21 01:51:29;;;;;;;1.45;0.55;;;3.10;78.90;;;;;;6071523;23;20077;-72
2022/01/21 01:54:00;;;;;;;2.53;0.75;;;3.00;78.80;;;;;;6050473;23;20019;-70
2022/01/21 01:56:29;;;;;;;;;;;3.00;78.90;;;;;;6048806;23;20084;-71
2022/01/21 01:58:57;;;;;;;2.30;0.70;;;3.00;78.80;;;;;;6052209;23;19928;-73
2022/01/21 02:01:24;;;;;;;6.78;1.23;;;3.00;78.80;;;;;;6046339;23;20019;-72
2022/01/21 02:03:51;;;;;;;4.03;0.93;;;3.10;78.80;;;;;;6050255;23;20421;-71
2022/01/21 02:06:19;;;;;;;5.68;1.30;;;3.00;78.80;;;;;;6047246;23;20033;-72
2022/01/21 02:08:47;;;;;;;4.82;1.05;;;3.00;78.90;;;;;;6071258;23;20542;-71
2022/01/21 02:11:14;;;;;;;1.02;0.52;;;2.90;78.90;;;;;;6048929;23;20023;-71
2022/01/21 02:13:44;;;;;;;3.90;1.48;;;2.90;78.90;;;;;;6047752;23;20337;-70
2022/01/21 02:16:31;;;;;;;3.85;0.60;;;2.90;78.80;;;;;;6071657;23;20026;-70
2022/01/21 02:21:55;;;;;;;0.90;0.40;;;2.90;78.80;;;;;;766181;23;10002562;-71
2022/01/21 02:24:30;;;;;;;0.70;0.38;;;2.90;78.80;;;;;;6048326;23;20076;-72
2022/01/21 02:26:57;;;;;;;1.63;0.80;;;2.90;78.80;;;;;;6051439;23;20018;-71
2022/01/21 02:29:30;;;;;;;2.25;1.40;;;2.90;78.80;;;;;;6050910;23;20034;-72
2022/01/21 02:32:00;;;;;;;5.25;0.90;;;2.80;78.90;;;;;;6049027;23;20478;-70
2022/01/21 02:34:28;;;;;;;4.75;0.68;;;2.90;78.90;;;;;;6050919;23;20097;-71
2022/01/21 02:36:56;;;;;;;2.38;0.65;;;2.80;78.90;;;;;;6073215;23;20069;-70
2022/01/21 02:39:23;;;;;;;2.97;0.47;;;2.90;78.90;;;;;;6049122;23;20031;-70
2022/01/21 02:41:50;;;;;;;3.42;0.80;;;2.90;78.90;;;;;;6074212;23;20105;-70
2022/01/21 02:44:18;;;;;;;3.83;0.75;;;2.90;78.90;;;;;;6050384;23;20487;-71
2022/01/21 02:46:54;;;;;;;1.13;0.47;;;2.90;78.90;;;;;;6075293;23;20026;-69
2022/01/21 02:49:21;;;;;;;9.65;1.23;;;2.90;79.00;;;;;;6050694;23;20156;-72
2022/01/21 02:51:48;;;;;;;3.30;0.88;;;2.90;78.90;;;;;;6053296;23;20023;-71
2022/01/21 02:54:16;;;;;;;4.05;1.55;;;2.90;79.00;;;;;;6053907;23;20308;-72
2022/01/21 02:56:43;;;;;;;4.88;0.75;;;2.80;78.90;;;;;;6054532;23;20019;-73
2022/01/21 02:59:11;;;;;;;0.73;0.40;;;2.90;78.90;;;;;;6054698;23;20129;-71
2022/01/21 03:01:40;;;;;;;5.45;1.00;;;2.80;78.80;;;;;;6073449;23;20019;-72
2022/01/21 03:04:13;;;;;;;3.72;0.70;;;2.80;78.80;;;;;;6054815;23;20534;-72
2022/01/21 03:06:41;;;;;;;1.95;0.70;;;2.80;78.90;;;;;;6052168;23;20030;-72
2022/01/21 03:09:10;;;;;;;4.53;1.63;;;2.80;78.90;;;;;;6076530;23;20033;-71
2022/01/21 03:11:39;;;;;;;5.25;1.20;;;2.80;78.90;;;;;;6051289;23;20427;-70
2022/01/21 03:14:06;;;;;;;1.83;0.38;;;2.80;79.00;;;;;;6054477;23;20410;-70
2022/01/21 03:16:33;;;;;;;1.95;0.57;;;2.80;78.90;;;;;;6051971;23;20026;-71
2022/01/21 03:19:00;;;;;;;2.72;0.57;;;2.80;79.00;;;;;;6054398;23;20023;-71
2022/01/21 03:21:28;;;;;;;1.48;0.38;;;2.80;79.00;;;;;;6054280;23;20362;-71
2022/01/21 03:23:56;;;;;;;1.63;0.35;;;2.80;79.00;;;;;;6076713;23;20038;-71
2022/01/21 03:26:26;;;;;;;7.10;1.05;;;2.70;79.00;;;;;;6051296;23;20031;-71
2022/01/21 03:28:57;;;;;;;2.30;0.90;;;2.70;79.10;;;;;;6076379;23;20058;-71
2022/01/21 03:31:24;;;;;;;;;;;2.70;79.10;;;;;;6052679;23;20371;-72
2022/01/21 03:33:54;;;;;;;3.28;0.40;;;2.70;79.00;;;;;;6052440;23;20270;-71
2022/01/21 03:36:21;;;;;;;3.85;1.05;;;2.70;79.10;;;;;;6075235;23;20023;-72
2022/01/21 03:38:49;;;;;;;2.30;1.00;;;2.70;79.10;;;;;;6052416;23;20102;-71
2022/01/21 03:41:16;;;;;;;1.25;0.43;;;2.70;79.10;;;;;;6051422;23;20029;-72
2022/01/21 03:43:43;;;;;;;3.15;1.98;;;2.70;79.20;;;;;;6075673;23;20022;-72
2022/01/21 03:46:12;;;;;;;5.28;1.33;;;2.60;79.30;;;;;;6075922;23;20022;-71
2022/01/21 03:48:39;;;;;;;5.78;1.10;;;2.60;79.30;;;;;;6075115;23;20023;-71
2022/01/21 03:51:06;;;;;;;4.32;0.80;;;2.60;79.50;;;;;;6051617;23;20120;-71
2022/01/21 03:53:33;;;;;;;1.90;0.68;;;2.60;79.70;;;;;;6074681;23;20036;-71
2022/01/21 03:56:01;;;;;;;1.58;0.57;;;2.50;79.90;;;;;;6050249;23;20339;-72
2022/01/21 03:58:29;;;;;;;4.70;0.77;;;2.60;80.00;;;;;;6050244;23;20452;-73
2022/01/21 04:00:57;;;;;;;3.95;0.90;;;2.50;80.00;;;;;;6071239;23;20098;-73
2022/01/21 04:03:28;;;;;;;1.80;0.40;;;2.50;80.00;;;;;;6074245;23;20030;-73
2022/01/21 04:05:56;;;;;;;1.92;0.63;;;2.50;80.00;;;;;;6074268;23;20018;-72
2022/01/21 04:08:24;;;;;;;1.00;0.38;;;2.40;80.20;;;;;;6073537;23;20034;-73
2022/01/21 04:10:56;;;;;;;4.63;1.30;;;2.40;80.30;;;;;;6074180;23;20038;-73
2022/01/21 04:13:25;;;;;;;2.65;0.60;;;2.40;80.40;;;;;;6048968;23;20023;-72
2022/01/21 04:15:59;;;;;;;0.65;0.30;;;2.40;80.50;;;;;;4349423;23;10023426;-72
2022/01/21 04:18:30;;;;;;;3.20;1.20;;;2.40;80.60;;;;;;2918711;23;10001875;-72
2022/01/21 04:21:00;;;;;;;3.65;0.45;;;2.40;80.60;;;;;;6050406;23;20633;-71
2022/01/21 04:23:29;;;;;;;5.78;0.60;;;2.40;80.60;;;;;;6050385;23;20049;-70
2022/01/21 04:25:56;;;;;;;0.90;0.50;;;2.40;80.50;;;;;;6049881;23;20126;-69
2022/01/21 04:28:24;;;;;;;0.75;0.63;;;2.40;80.60;;;;;;6049026;23;20047;-72
2022/01/21 04:30:51;;;;;;;5.88;0.77;;;2.40;80.50;;;;;;6062066;23;20074;-71
2022/01/21 04:33:29;;;;;;;1.70;0.73;;;2.40;80.50;;;;;;6051000;23;20510;-70
2022/01/21 04:35:59;;;;;;;2.33;0.85;;;2.40;80.70;;;;;;6075398;23;20109;-72
2022/01/21 04:38:28;;;;;;;1.95;0.73;;;2.40;80.80;;;;;;6074873;23;20104;-71
2022/01/21 04:41:02;;;;;;;4.93;1.30;;;2.40;80.70;;;;;;6051718;23;20019;-71
2022/01/21 04:49:02;;;;;;;1.00;0.40;;;2.40;80.90;;;;;;6072854;23;20027;-70
2022/01/21 04:51:37;;;;;;;2.78;0.90;;;2.40;81.00;;;;;;6060634;23;20023;-71
2022/01/21 04:54:05;;;;;;;5.22;1.52;;;2.40;81.00;;;;;;6050179;23;20027;-72
2022/01/21 04:56:34;;;;;;;2.17;0.50;;;2.30;81.00;;;;;;6050422;23;20038;-70
2022/01/21 04:59:02;;;;;;;0.82;0.40;;;2.30;81.00;;;;;;6041029;23;20369;-71
2022/01/21 05:01:30;;;;;;;6.28;1.20;;;2.30;80.90;;;;;;6047201;23;20050;-72
2022/01/21 05:03:57;;;;;;;3.33;0.63;;;2.30;80.90;;;;;;6051557;23;20026;-72
2022/01/21 05:06:28;;;;;;;4.90;0.47;;;2.40;80.90;;;;;;6037638;23;20023;-72
2022/01/21 05:08:56;;;;;;;2.08;0.68;;;2.30;80.90;;;;;;6049373;23;20929;-72
2022/01/21 05:11:25;;;;;;;2.40;0.88;;;2.40;80.90;;;;;;6073663;23;20027;-70
2022/01/21 05:13:57;;;;;;;5.22;0.88;;;2.40;80.90;;;;;;6050217;23;20015;-72
2022/01/21 05:16:33;;;;;;;4.90;1.77;;;2.40;80.90;;;;;;6052467;23;20031;-72
2022/01/21 05:19:07;;;;;;;8.55;2.53;;;2.40;80.80;;;;;;6074720;23;20147;-73
2022/01/21 05:21:50;;;;;;;4.32;0.98;;;2.40;80.80;;;;;;6051028;23;20026;-70
2022/01/21 05:24:23;;;;;;;5.68;1.00;;;2.40;80.90;;;;;;6074682;23;20023;-71
2022/01/21 05:26:54;;;;;;;5.88;0.77;;;2.40;80.90;;;;;;6051793;23;20448;-72
2022/01/21 05:29:26;;;;;;;3.30;0.90;;;2.40;80.90;;;;;;6050358;23;20052;-72
2022/01/21 05:32:15;;;;;;;3.25;1.13;;;2.40;81.00;;;;;;6020842;23;20038;-70
2022/01/21 05:35:01;;;;;;;3.40;0.77;;;2.40;80.90;;;;;;6051517;23;20038;-71
2022/01/21 05:37:55;;;;;;;3.58;1.00;;;2.30;80.90;;;;;;6037400;23;20041;-71
2022/01/21 05:40:24;;;;;;;2.20;0.75;;;2.30;81.10;;;;;;6046461;23;20037;-71
2022/01/21 05:43:17;;;;;;;3.28;0.63;;;2.40;81.00;;;;;;6022452;23;20038;-71
2022/01/21 05:46:31;;;;;;;3.10;0.93;;;2.30;81.00;;;;;;6046370;23;20459;-72
2022/01/21 05:49:27;;;;;;;3.75;0.90;;;2.40;81.00;;;;;;6044674;23;20382;-71
2022/01/21 05:52:02;;;;;;;3.58;0.70;;;2.40;81.00;;;;;;6048481;23;20114;-70
2022/01/21 05:54:56;;;;;;;2.47;0.77;;;2.40;80.90;;;;;;6049517;23;20121;-71
2022/01/21 05:57:45;;;;;;;2.30;1.07;;;2.40;80.90;;;;;;6052062;23;20109;-71
2022/01/21 06:00:16;;;;;;;3.50;0.65;;;2.40;80.90;;;;;;6050094;23;20410;-70
2022/01/21 06:02:49;;;;;;;3.60;0.70;;;2.40;80.90;;;;;;6052958;23;20029;-72
2022/01/21 06:05:16;;;;;;;1.98;0.68;;;2.40;80.90;;;;;;6072293;23;20033;-71
2022/01/21 06:07:43;;;;;;;5.65;1.60;;;2.40;81.00;;;;;;6073471;23;20423;-71
2022/01/21 06:10:12;;;;;;;5.97;1.00;;;2.40;81.10;;;;;;6053595;23;20043;-71
2022/01/21 06:12:43;;;;;;;2.90;0.65;;;2.40;81.10;;;;;;4407603;23;10023423;-71
2022/01/21 06:15:11;;;;;;;3.10;0.80;;;2.40;81.10;;;;;;2921290;23;10001959;-72
2022/01/21 06:17:38;;;;;;;5.22;0.98;;;2.40;81.10;;;;;;6056113;23;20061;-71
2022/01/21 06:20:06;;;;;;;4.88;0.65;;;2.40;81.00;;;;;;6057490;23;20030;-71
2022/01/21 06:22:33;;;;;;;6.57;2.33;;;2.40;81.00;;;;;;6057049;23;20022;-71
2022/01/21 06:25:00;;;;;;;3.75;0.95;;;2.40;81.00;;;;;;6057088;23;20113;-72
2022/01/21 06:27:31;;;;;;;1.42;0.77;;;2.40;81.00;;;;;;6050637;23;20030;-72
2022/01/21 06:29:58;;;;;;;4.68;1.08;;;2.40;81.10;;;;;;6051280;23;20514;-72
2022/01/21 06:32:26;;;;;;;1.55;0.80;;;2.40;81.10;;;;;;6054395;23;20073;-71
2022/01/21 06:34:53;;;;;;;2.90;1.20;;;2.30;81.20;;;;;;6051058;23;20046;-71
2022/01/21 06:37:20;;;;;;;5.68;1.75;;;2.40;81.30;;;;;;6051369;23;20023;-71
2022/01/21 06:39:46;;;;;;;6.35;2.20;;;2.40;81.20;;;;;;6052349;23;20019;-72
2022/01/21 06:42:14;;;;;;;3.00;1.23;;;2.40;81.30;;;;;;6074070;23;20022;-71
2022/01/21 06:44:42;;;;;;;3.45;1.13;;;2.40;81.40;;;;;;6053238;23;20117;-71
2022/01/21 06:47:09;;;;;;;5.93;1.27;;;2.40;81.40;;;;;;6052566;23;20022;-71
2022/01/21 06:49:36;;;;;;;3.58;1.00;;;2.40;81.40;;;;;;6051002;23;20093;-72
2022/01/21 06:52:04;;;;;;;5.90;1.42;;;2.40;81.40;;;;;;6053863;23;20046;-70
2022/01/21 06:54:31;;;;;;;7.13;1.52;;;2.40;81.40;;;;;;6052562;23;20029;-72
2022/01/21 06:56:58;;;;;;;5.30;1.50;;;2.30;81.50;;;;;;6051006;23;20023;-72
2022/01/21 06:59:25;;;;;;;4.63;1.38;;;2.40;81.60;;;;;;6053921;23;20329;-70
2022/01/21 07:01:53;;;;;;;4.93;1.73;;;2.30;81.70;;;;;;6051131;23;20023;-70
2022/01/21 07:04:20;;;;;;;6.47;2.33;;;2.40;81.60;;;;;;6051546;23;20454;-72
2022/01/21 07:06:47;;;;;;;2.95;1.42;;;2.40;81.70;;;;;;6051957;23;20022;-72
2022/01/21 07:09:14;;;;;;;5.28;1.95;;;2.40;81.70;;;;;;6053119;23;20137;-71
2022/01/21 07:11:40;;;;;;;3.03;1.20;;;2.40;81.70;;;;;;6053646;23;20023;-71
2022/01/21 07:14:07;;;;;;;7.55;1.60;;;2.40;81.60;;;;;;6050114;23;20023;-72
2022/01/21 07:16:34;;;;;;;10.38;1.90;;;2.40;81.60;;;;;;6049885;23;20117;-71
2022/01/21 07:19:03;;;;;;;4.07;1.00;;;2.40;81.60;;;;;;6050245;23;20023;-71
2022/01/21 07:21:30;;;;;;;5.07;1.45;;;2.40;81.60;;;;;;6051867;23;20023;-72
2022/01/21 07:23:57;;;;;;;3.08;1.25;;;2.40;81.60;;;;;;6049375;23;20079;-71
2022/01/21 07:26:23;;;;;;;4.95;1.77;;;2.40;81.50;;;;;;6047138;23;20421;-71
2022/01/21 07:28:50;;;;;;;6.43;1.75;;;2.40;81.40;;;;;;6052461;23;20429;-71
2022/01/21 07:31:17;;;;;;;8.60;1.48;;;2.50;81.30;;;;;;6046940;23;20088;-72
2022/01/21 07:33:44;;;;;;;6.10;1.33;;;2.50;81.30;;;;;;6048523;23;20357;-71
2022/01/21 07:36:13;;;;;;;6.38;1.95;;;2.50;81.20;;;;;;6049354;23;20037;-72
2022/01/21 07:38:41;;;;;;;9.40;2.38;;;2.50;81.20;;;;;;6053205;23;20033;-71
2022/01/21 07:41:08;;;;;;;7.38;2.20;;;2.50;81.10;;;;;;6049003;23;20037;-71
2022/01/21 07:43:35;;;;;;;6.78;1.88;;;2.50;81.20;;;;;;6049119;23;20050;-71
2022/01/21 07:46:02;;;;;;;8.20;2.45;;;2.50;81.30;;;;;;6049840;23;20027;-71
2022/01/21 07:48:29;;;;;;;7.10;1.67;;;2.50;81.20;;;;;;6049900;23;20094;-72
2022/01/21 07:50:56;;;;;;;4.93;2.58;;;2.50;81.20;;;;;;6051363;23;20022;-71
2022/01/21 07:53:24;;;;;;;6.00;1.75;;;2.50;81.30;;;;;;6051701;23;20041;-72
2022/01/21 07:55:51;;;;;;;3.25;1.27;;;2.50;81.20;;;;;;6051952;23;20019;-70
2022/01/21 07:58:18;;;;;;;6.75;2.05;;;2.50;81.20;;;;;;6052250;23;20054;-70
2022/01/21 08:00:46;;;;;;;3.90;1.83;;;2.50;81.20;;;;;;6049999;23;20090;-71
2022/01/21 08:03:13;;;;;;;5.78;1.92;;;2.50;81.10;;;;;;6056381;23;20061;-70
2022/01/21 08:05:42;;;;;;;6.90;2.35;;;2.60;81.10;;;;;;6055566;23;20253;-72
2022/01/21 08:08:10;;;;;;;4.25;1.38;;;2.50;81.10;;;;;;6050474;23;20102;-71
2022/01/21 08:10:38;;;;;;;3.15;1.55;;;2.60;81.10;;;;;;6052179;23;20041;-71
2022/01/21 08:13:05;;;;;;;8.90;1.65;;;2.60;81.00;;;;;;6052774;23;20676;-72
2022/01/21 08:15:40;;;;;;;4.95;2.10;;;2.60;81.10;;;;;;3911111;23;10022051;-70
2022/01/21 08:18:09;;;;;;;5.03;1.70;;;2.60;81.10;;;;;;3129231;23;10001926;-70
2022/01/21 08:20:36;;;;;;;9.02;2.42;;;2.60;81.10;;;;;;6052664;23;20588;-71
2022/01/21 08:23:03;;;;;;;4.97;1.63;;;2.60;81.20;;;;;;6051440;23;20111;-70
2022/01/21 08:25:31;;;;;;;9.27;2.97;;;2.60;81.20;;;;;;6051126;23;20050;-70
2022/01/21 08:27:59;;;;;;;11.82;2.85;;;2.70;81.20;;;;;;6051740;23;20419;-70
2022/01/21 08:30:27;;;;;;;7.82;1.77;;;2.70;81.00;;;;;;6051420;23;20046;-71
2022/01/21 08:32:54;;;;;;;3.78;1.80;;;2.70;81.00;;;;;;6051421;23;20019;-70
2022/01/21 08:35:21;;;;;;;8.77;2.17;;;2.70;80.90;;;;;;6051410;23;20130;-69
2022/01/21 08:37:52;;;;;;;4.30;1.73;;;2.70;81.00;;;;;;6051506;23;20479;-71
2022/01/21 08:40:19;;;;;;;3.22;2.15;;;2.70;81.00;;;;;;6051688;23;20030;-70
2022/01/21 08:42:46;;;;;;;9.65;2.13;;;2.70;81.00;;;;;;6051376;23;20043;-70
2022/01/21 08:45:14;;;;;;;5.63;2.17;;;2.70;81.00;;;;;;6051813;23;20023;-72
2022/01/21 08:47:42;;;;;;;6.45;2.20;;;2.80;80.90;;;;;;6050168;23;20029;-72
2022/01/21 08:50:12;;;;;;;7.18;2.85;;;2.80;80.90;;;;;;6051568;23;20243;-70
2022/01/21 08:52:41;;;;;;;8.45;2.20;;;2.80;80.90;;;;;;6049468;23;20023;-70
2022/01/21 08:55:10;;;;;;;4.70;2.03;;;2.80;80.80;;;;;;6049350;23;20025;-72
2022/01/21 08:57:39;;;;;;;10.73;2.40;;;2.90;80.80;;;;;;6049320;23;20027;-72
2022/01/21 09:00:08;;;;;;;11.35;2.67;;;2.90;80.80;;;;;;6049274;23;20027;-70
2022/01/21 09:02:36;;;;;;;7.22;2.47;;;2.90;80.80;;;;;;6050081;23;20030;-69
2022/01/21 09:05:04;;;;;;;4.57;1.73;;;2.90;80.80;;;;;;6048927;23;20034;-69
2022/01/21 09:07:31;;;;;;;4.80;2.15;;;2.90;80.90;;;;;;6049404;23;20429;-69
2022/01/21 09:09:58;;;;;;;5.35;2.20;;;2.90;80.90;;;;;;6049658;23;20026;-68
2022/01/21 09:12:25;;;;;;;10.23;2.33;;;2.90;80.90;;;;;;6048848;23;20389;-69
2022/01/21 09:14:52;;;;;;;11.40;3.15;;;2.90;80.90;;;;;;6049284;23;20029;-68
2022/01/21 09:17:19;;;;;;;6.60;2.50;;;2.90;80.90;;;;;;6048748;23;20033;-69
2022/01/21 09:19:47;;;;;;;7.13;2.42;;;2.90;80.90;;;;;;6050059;23;20019;-69
2022/01/21 09:22:14;;;;;;;7.05;2.65;;;3.00;80.90;;;;;;6049888;23;20532;-68
2022/01/21 09:24:41;;;;;;;7.65;2.58;;;3.00;80.90;;;;;;6048672;23;20046;-69
2022/01/21 09:27:08;;;;;;;5.80;2.92;;;3.00;81.00;;;;;;6049076;23;20049;-69
2022/01/21 09:29:35;;;;;;;8.20;2.70;;;3.10;80.90;;;;;;6048943;23;20033;-68
2022/01/21 09:32:04;;;;;;;7.75;3.80;;;3.10;80.90;;;;;;6053943;23;20027;-68
2022/01/21 09:34:32;;;;;;;8.32;2.95;;;3.10;81.00;;;;;;6053900;23;20097;-68
2022/01/21 09:37:01;;;;;;;7.10;2.75;;;3.10;81.00;;;;;;6051074;23;20450;-68
2022/01/21 09:39:30;;;;;;;4.03;2.20;;;3.10;81.00;;;;;;6052097;23;20050;-68
2022/01/21 09:41:59;;;;;;;5.50;2.35;;;3.20;80.90;;;;;;6054218;23;20110;-67
2022/01/21 09:44:27;;;;;;;6.60;2.95;;;3.20;80.90;;;;;;6052047;23;20022;-69
2022/01/21 09:46:57;;;;;;;7.03;3.38;;;3.20;80.90;;;;;;6054891;23;20103;-69
2022/01/21 09:49:28;;;;;;;6.03;3.13;;;3.30;80.90;;;;;;6052736;23;20055;-67
2022/01/21 09:51:56;;;;;;;;;;;3.30;80.80;;;;;;6053876;23;20027;-69
2022/01/21 09:54:27;;;;;;;6.72;2.97;;;3.30;80.70;;;;;;6052746;23;20372;-67
2022/01/21 09:56:55;;;;;;;9.85;2.90;;;3.30;80.80;;;;;;6053295;23;20571;-68
2022/01/21 09:59:24;;;;;;;5.57;2.70;;;3.40;80.70;;;;;;6052099;23;20022;-68
2022/01/21 10:01:53;;;;;;;8.10;2.45;;;3.40;80.90;;;;;;6051608;23;20019;-68
2022/01/21 10:04:25;;;;;;;7.75;2.92;;;3.40;80.80;;;;;;6053286;23;20107;-68
2022/01/21 10:06:53;;;;;;;9.55;3.22;;;3.50;80.90;;;;;;6052537;23;20111;-67
2022/01/21 10:09:22;;;;;;;9.57;3.00;;;3.50;80.80;;;;;;6052413;23;20034;-68
2022/01/21 10:11:52;;;;;;;10.05;3.25;;;3.50;80.90;;;;;;6052951;23;20022;-68
2022/01/21 10:14:22;;;;;;;8.13;2.80;;;3.50;81.00;;;;;;6053021;23;20022;-69
2022/01/21 10:17:03;;;;;;;4.10;1.53;;;3.50;80.80;;;;;;3699242;23;10001559;-68
2022/01/21 10:19:32;;;;;;;9.18;2.53;;;3.60;80.70;;;;;;3966535;23;10002338;-68
2022/01/21 10:22:02;;;;;;;6.53;3.15;;;3.60;80.80;;;;;;6053856;23;20025;-68
2022/01/21 10:24:29;;;;;;;6.18;2.58;;;3.60;80.90;;;;;;6052103;23;20033;-68
2022/01/21 10:26:58;;;;;;;6.93;3.20;;;3.70;81.00;;;;;;6053152;23;20045;-68
2022/01/21 10:29:34;;;;;;;6.57;2.63;;;3.70;80.90;;;;;;6052724;23;20029;-68
2022/01/21 10:32:03;;;;;;;5.88;2.55;;;3.70;80.90;;;;;;6051427;23;20094;-68
2022/01/21 10:34:35;;;;;;;8.80;3.30;;;3.70;80.90;;;;;;6050320;23;20027;-68
2022/01/21 10:37:07;;;;;;;6.05;2.90;;;3.80;80.70;;;;;;6051475;23;20102;-68
2022/01/21 10:39:58;;;;;;;5.05;2.47;;;3.80;80.70;;;;;;6050634;23;20077;-68
2022/01/21 10:42:26;;;;;;;;;;;3.90;80.70;;;;;;6052323;23;20524;-68
2022/01/21 10:44:53;;;;;;;10.52;2.75;;;4.00;80.60;;;;;;6050063;23;19922;-68
2022/01/21 10:47:27;;;;;;;7.07;2.50;;;4.00;80.60;;;;;;6051086;23;20023;-68
2022/01/21 10:50:06;;;;;;;9.32;2.53;;;3.90;80.60;;;;;;6050151;23;20098;-67
2022/01/21 10:52:36;;;;;;;11.05;3.55;;;4.00;80.70;;;;;;6047342;23;20365;-69
2022/01/21 10:55:05;;;;;;;7.43;3.15;;;4.00;80.70;;;;;;6051807;23;20420;-69
2022/01/21 10:57:36;;;;;;;5.70;2.45;;;4.00;80.70;;;;;;6049500;23;20383;-68
2022/01/21 11:00:07;;;;;;;13.00;3.40;;;4.00;80.90;;;;;;6049895;23;20022;-69
2022/01/21 11:02:42;;;;;;;7.35;3.22;;;4.10;80.90;;;;;;6051321;23;20508;-68
2022/01/21 11:05:14;;;;;;;7.25;3.67;;;4.10;81.10;;;;;;6051297;23;20706;-68
2022/01/21 11:07:56;;;;;;;9.50;3.25;;;4.10;81.10;;;;;;6051268;23;20027;-68
2022/01/21 11:10:48;;;;;;;8.05;3.05;;;4.10;81.00;;;;;;6051916;23;20023;-68
2022/01/21 11:13:43;;;;;;;7.65;3.30;;;4.20;80.90;;;;;;6041592;23;20033;-67
2022/01/21 11:16:20;;;;;;;10.10;4.15;;;4.20;80.70;;;;;;6053362;23;20036;-69
2022/01/21 11:18:57;;;;;;;7.07;3.17;;;4.20;80.80;;;;;;6052215;23;20027;-69
2022/01/21 11:21:37;;;;;;;9.82;3.72;;;4.20;80.80;;;;;;6051078;23;20023;-68
2022/01/21 11:24:08;;;;;;;5.55;3.13;;;4.20;80.70;;;;;;6052200;23;20412;-68
2022/01/21 11:26:35;;;;;;;8.30;3.35;;;4.30;80.70;;;;;;6051336;23;20510;-68
2022/01/21 11:29:05;;;;;;;5.97;3.17;;;4.30;80.60;;;;;;6051624;23;20117;-68
2022/01/21 11:31:33;;;;;;;7.82;3.15;;;4.30;80.60;;;;;;6053333;23;20026;-69
2022/01/21 11:34:00;;;;;;;7.05;2.60;;;4.40;80.40;;;;;;6052209;23;20053;-69
2022/01/21 11:36:28;;;;;;;7.57;2.83;;;4.40;80.40;;;;;;6050499;23;20047;-68
2022/01/21 11:38:58;;;;;;;6.43;2.40;;;4.40;80.30;;;;;;6051073;23;20019;-68
2022/01/21 11:41:27;;;;;;;7.57;2.78;;;4.40;80.10;;;;;;6051604;23;20069;-68
2022/01/21 11:43:59;;;;;;;7.40;2.95;;;4.40;80.10;;;;;;6049240;23;20386;-68
2022/01/21 11:46:59;;;;;;;11.10;3.70;;;4.30;80.00;;;;;;6051519;23;20349;-69
2022/01/21 11:49:26;;;;;;;9.07;3.35;;;4.30;80.10;;;;;;6051132;23;20059;-69
2022/01/21 11:52:09;;;;;;;10.52;3.20;;;4.30;80.10;;;;;;6052087;23;20130;-67
2022/01/21 11:54:38;;;;;;;6.75;2.83;;;4.30;80.10;;;;;;6052162;23;20090;-67
2022/01/21 11:57:06;;;;;;;5.93;3.20;;;4.30;80.00;;;;;;6051569;23;20034;-68
2022/01/21 11:59:41;;;;;;;7.97;2.88;;;4.30;80.10;;;;;;6051961;23;20029;-68
2022/01/21 12:02:22;;;;;;;7.63;2.88;;;4.30;80.20;;;;;;6051497;23;20090;-68
2022/01/21 12:04:49;;;;;;;;;;;4.30;80.20;;;;;;6051930;23;20023;-69
2022/01/21 12:07:45;;;;;;;7.50;2.83;;;4.30;80.20;;;;;;6050919;23;20350;-67
2022/01/21 12:10:13;;;;;;;5.03;2.00;;;4.30;80.20;;;;;;6050689;23;20037;-68
2022/01/21 12:13:12;;;;;;;6.88;2.63;;;4.40;80.30;;;;;;6050063;23;20049;-68
2022/01/21 12:16:06;;;;;;;8.13;2.55;;;4.40;80.30;;;;;;6051330;23;20079;-69
2022/01/21 12:22:15;;;;;;;5.80;2.40;;;4.40;80.50;;;;;;4827782;23;10001964;-69
2022/01/21 12:25:04;;;;;;;7.63;2.42;;;4.50;80.40;;;;;;4163311;23;10001920;-67
2022/01/21 12:27:31;;;;;;;7.00;2.65;;;4.50;80.30;;;;;;6049082;23;20130;-67
2022/01/21 12:30:26;;;;;;;5.70;2.10;;;4.50;80.20;;;;;;6049539;23;20019;-69
2022/01/21 12:32:54;;;;;;;3.55;1.55;;;4.50;79.90;;;;;;6049509;23;20030;-67
2022/01/21 12:35:43;;;;;;;5.95;1.77;;;4.50;79.80;;;;;;6050554;23;20026;-69
2022/01/21 12:40:58;;;;;;;6.28;2.00;;;4.50;79.80;;;;;;6049323;23;20130;-69
2022/01/21 12:43:39;;;;;;;4.20;1.70;;;4.50;79.90;;;;;;6050733;23;20086;-69
2022/01/21 12:46:07;;;;;;;5.85;1.88;;;4.60;79.90;;;;;;6050114;23;20019;-69
2022/01/21 12:48:35;;;;;;;5.43;2.35;;;4.50;80.00;;;;;;6049767;23;20093;-68
2022/01/21 12:51:35;;;;;;;6.63;1.85;;;4.50;80.00;;;;;;6050685;23;20049;-67
2022/01/21 12:56:50;;;;;;;3.47;1.42;;;4.60;80.30;;;;;;6050867;23;20022;-69
2022/01/21 12:59:19;;;;;;;4.88;2.33;;;4.60;80.30;;;;;;6053303;23;20030;-69
2022/01/21 13:01:47;;;;;;;5.22;2.00;;;4.60;80.30;;;;;;6076136;23;20022;-69
2022/01/21 13:04:26;;;;;;;3.72;1.90;;;4.70;80.00;;;;;;6055335;23;20106;-69
2022/01/21 13:06:57;;;;;;;4.75;1.77;;;4.70;80.10;;;;;;6077629;23;20578;-69
2022/01/21 13:09:43;;;;;;;4.13;1.23;;;4.70;80.20;;;;;;6057085;23;20114;-69
2022/01/21 13:12:13;;;;;;;6.25;1.67;;;4.70;80.30;;;;;;6058778;23;20105;-67
2022/01/21 13:14:45;;;;;;;3.13;1.13;;;4.70;80.30;;;;;;6057508;23;20529;-68
2022/01/21 13:17:15;;;;;;;3.47;1.77;;;4.70;80.20;;;;;;6058259;23;20077;-68
2022/01/21 13:19:47;;;;;;;4.07;1.35;;;4.70;80.30;;;;;;6056888;23;20355;-68
2022/01/21 13:22:21;;;;;;;3.60;1.42;;;4.70;80.20;;;;;;6057103;23;20357;-69
2022/01/21 13:25:03;;;;;;;4.45;1.40;;;4.70;80.20;;;;;;6058036;23;20023;-69
2022/01/21 13:27:31;;;;;;;4.15;1.45;;;4.70;80.30;;;;;;6057177;23;20416;-69
2022/01/21 13:29:59;;;;;;;4.47;1.70;;;4.80;80.30;;;;;;6057748;23;20687;-69
2022/01/21 13:32:27;;;;;;;4.15;1.52;;;4.70;80.30;;;;;;6057671;23;20027;-69
2022/01/21 13:35:09;;;;;;;6.32;1.63;;;4.80;80.30;;;;;;6057871;23;20089;-69
2022/01/21 13:37:37;;;;;;;4.75;2.13;;;4.80;80.30;;;;;;6047566;23;20354;-67
2022/01/21 13:40:08;;;;;;;3.17;1.17;;;4.80;80.40;;;;;;6072942;23;20141;-68
2022/01/21 13:42:36;;;;;;;4.20;1.45;;;4.80;80.20;;;;;;6056076;23;20038;-69
2022/01/21 13:45:08;;;;;;;4.15;1.13;;;4.80;80.20;;;;;;6056380;23;20118;-70
2022/01/21 13:47:37;;;;;;;3.80;1.20;;;4.80;80.20;;;;;;6053906;23;20023;-68
2022/01/21 13:50:09;;;;;;;3.53;1.33;;;4.80;80.20;;;;;;6054998;23;20438;-67
2022/01/21 13:52:42;;;;;;;2.35;1.30;;;4.80;80.20;;;;;;6053493;23;20033;-67
2022/01/21 13:55:11;;;;;;;5.78;1.05;;;4.90;80.10;;;;;;6055001;23;20029;-67
2022/01/21 13:57:46;;;;;;;3.70;1.20;;;4.90;80.00;;;;;;6041376;23;20060;-67
2022/01/21 14:00:14;;;;;;;3.83;1.67;;;4.90;80.10;;;;;;6052878;23;20026;-69